sensor_id;sensor_type;location;lat;lon;timestamp;P1;durP1;ratioP1;P2;durP2;ratioP2
1164;SDS011;571;50.930;6.926;2022-08-23T04:00:35;10.30;;;6.07;;
1164;SDS011;571;50.930;6.926;2022-08-23T04:03:04;15.10;;;6.50;;
1164;SDS011;571;50.930;6.926;2022-08-23T04:05:31;10.03;;;6.03;;
1164;SDS011;571;50.930;6.926;2022-08-23T04:07:57;9.20;;;6.33;;
1164;SDS011;571;50.930;6.926;2022-08-23T04:10:26;8.00;;;6.30;;
1164;SDS011;571;50.930;6.926;2022-08-23T04:12:53;9.60;;;5.90;;
1164;SDS011;571;50.930;6.926;2022-08-23T04:15:20;6.40;;;5.80;;
1164;SDS011;571;50.930;6.926;2022-08-23T04:17:48;17.50;;;6.40;;
1164;SDS011;571;50.930;6.926;2022-08-23T04:20:15;10.90;;;5.37;;
1164;SDS011;571;50.930;6.926;2022-08-23T04:22:42;8.17;;;5.57;;
1164;SDS011;571;50.930;6.926;2022-08-23T04:25:09;8.30;;;6.90;;
1164;SDS011;571;50.930;6.926;2022-08-23T04:27:36;6.60;;;5.70;;
1164;SDS011;571;50.930;6.926;2022-08-23T04:30:03;18.03;;;6.93;;
1164;SDS011;571;50.930;6.926;2022-08-23T04:32:30;7.53;;;6.10;;
1164;SDS011;571;50.930;6.926;2022-08-23T04:34:59;13.10;;;7.07;;
1164;SDS011;571;50.930;6.926;2022-08-23T04:37:25;9.53;;;6.43;;
1164;SDS011;571;50.930;6.926;2022-08-23T04:39:53;7.93;;;6.20;;
1164;SDS011;571;50.930;6.926;2022-08-23T04:42:37;9.90;;;5.87;;
1164;SDS011;571;50.930;6.926;2022-08-23T04:45:05;6.53;;;5.87;;
1164;SDS011;571;50.930;6.926;2022-08-23T04:47:33;12.47;;;6.50;;
1164;SDS011;571;50.930;6.926;2022-08-23T04:50:05;8.80;;;6.80;;
1164;SDS011;571;50.930;6.926;2022-08-23T04:52:32;9.37;;;6.47;;
1164;SDS011;571;50.930;6.926;2022-08-23T04:54:59;8.57;;;5.83;;
1164;SDS011;571;50.930;6.926;2022-08-23T04:57:26;6.73;;;6.00;;
1164;SDS011;571;50.930;6.926;2022-08-23T04:59:53;11.03;;;6.73;;
1164;SDS011;571;50.930;6.926;2022-08-23T05:02:20;10.63;;;7.10;;
1164;SDS011;571;50.930;6.926;2022-08-23T05:04:46;23.00;;;7.83;;
1164;SDS011;571;50.930;6.926;2022-08-23T05:07:15;13.20;;;8.57;;
1164;SDS011;571;50.930;6.926;2022-08-23T05:09:41;10.00;;;7.73;;
1164;SDS011;571;50.930;6.926;2022-08-23T05:12:08;9.00;;;5.90;;
1164;SDS011;571;50.930;6.926;2022-08-23T05:14:35;14.27;;;7.40;;
1164;SDS011;571;50.930;6.926;2022-08-23T05:17:02;9.40;;;5.47;;
1164;SDS011;571;50.930;6.926;2022-08-23T05:19:29;7.97;;;5.40;;
1164;SDS011;571;50.930;6.926;2022-08-23T05:21:56;6.70;;;6.10;;
1164;SDS011;571;50.930;6.926;2022-08-23T05:24:24;6.43;;;5.83;;
1164;SDS011;571;50.930;6.926;2022-08-23T05:26:51;12.37;;;8.17;;
1164;SDS011;571;50.930;6.926;2022-08-23T05:29:18;7.87;;;6.50;;
1164;SDS011;571;50.930;6.926;2022-08-23T05:31:45;7.63;;;5.87;;
1164;SDS011;571;50.930;6.926;2022-08-23T05:34:12;16.13;;;8.17;;
1164;SDS011;571;50.930;6.926;2022-08-23T05:36:39;10.00;;;8.57;;
1164;SDS011;571;50.930;6.926;2022-08-23T05:39:06;13.43;;;9.47;;
1164;SDS011;571;50.930;6.926;2022-08-23T05:41:34;14.43;;;8.23;;
1164;SDS011;571;50.930;6.926;2022-08-23T05:44:01;12.40;;;8.47;;
1164;SDS011;571;50.930;6.926;2022-08-23T05:46:28;11.20;;;9.17;;
1164;SDS011;571;50.930;6.926;2022-08-23T05:48:55;11.90;;;9.97;;
1164;SDS011;571;50.930;6.926;2022-08-23T05:51:24;9.83;;;8.30;;
1164;SDS011;571;50.930;6.926;2022-08-23T05:53:53;10.40;;;8.70;;
1164;SDS011;571;50.930;6.926;2022-08-23T05:56:23;12.50;;;8.03;;
1164;SDS011;571;50.930;6.926;2022-08-23T05:58:54;10.13;;;7.20;;
1164;SDS011;571;50.930;6.926;2022-08-23T06:01:23;11.40;;;7.00;;
1164;SDS011;571;50.930;6.926;2022-08-23T06:03:51;11.50;;;7.13;;
1164;SDS011;571;50.930;6.926;2022-08-23T06:06:18;9.70;;;6.43;;
1164;SDS011;571;50.930;6.926;2022-08-23T06:08:47;11.93;;;7.60;;
1164;SDS011;571;50.930;6.926;2022-08-23T06:11:14;9.33;;;6.73;;
1164;SDS011;571;50.930;6.926;2022-08-23T06:13:43;15.10;;;6.97;;
1164;SDS011;571;50.930;6.926;2022-08-23T06:16:13;12.27;;;6.77;;
1164;SDS011;571;50.930;6.926;2022-08-23T06:18:40;12.17;;;6.20;;
1164;SDS011;571;50.930;6.926;2022-08-23T06:21:11;7.30;;;5.70;;
1164;SDS011;571;50.930;6.926;2022-08-23T06:23:39;9.20;;;5.90;;
1164;SDS011;571;50.930;6.926;2022-08-23T06:26:21;6.20;;;5.60;;
1164;SDS011;571;50.930;6.926;2022-08-23T06:28:55;8.00;;;5.97;;
1164;SDS011;571;50.930;6.926;2022-08-23T06:31:45;5.40;;;5.00;;
1164;SDS011;571;50.930;6.926;2022-08-23T06:37:39;5.30;;;4.80;;
1164;SDS011;571;50.930;6.926;2022-08-23T06:40:20;12.47;;;6.53;;
1164;SDS011;571;50.930;6.926;2022-08-23T06:42:53;7.90;;;4.90;;
1164;SDS011;571;50.930;6.926;2022-08-23T06:45:23;7.33;;;4.77;;
1164;SDS011;571;50.930;6.926;2022-08-23T06:47:55;11.10;;;4.70;;
1164;SDS011;571;50.930;6.926;2022-08-23T06:50:24;7.23;;;5.40;;
1164;SDS011;571;50.930;6.926;2022-08-23T06:52:53;8.00;;;5.43;;
1164;SDS011;571;50.930;6.926;2022-08-23T06:55:22;10.40;;;5.23;;
1164;SDS011;571;50.930;6.926;2022-08-23T06:57:49;6.93;;;4.77;;
1164;SDS011;571;50.930;6.926;2022-08-23T07:00:15;5.17;;;4.30;;
1164;SDS011;571;50.930;6.926;2022-08-23T07:02:42;5.80;;;5.20;;
1164;SDS011;571;50.930;6.926;2022-08-23T07:05:10;6.77;;;6.07;;
1164;SDS011;571;50.930;6.926;2022-08-23T07:07:37;7.83;;;5.07;;
1164;SDS011;571;50.930;6.926;2022-08-23T07:10:04;5.63;;;4.77;;
1164;SDS011;571;50.930;6.926;2022-08-23T07:12:32;6.80;;;5.23;;
1164;SDS011;571;50.930;6.926;2022-08-23T07:15:02;6.80;;;4.87;;
1164;SDS011;571;50.930;6.926;2022-08-23T07:17:29;6.63;;;5.37;;
1164;SDS011;571;50.930;6.926;2022-08-23T07:19:56;5.50;;;4.83;;
1164;SDS011;571;50.930;6.926;2022-08-23T07:22:24;9.57;;;4.73;;
1164;SDS011;571;50.930;6.926;2022-08-23T07:24:51;6.80;;;4.87;;
1164;SDS011;571;50.930;6.926;2022-08-23T07:27:18;6.60;;;3.80;;
1164;SDS011;571;50.930;6.926;2022-08-23T07:29:45;8.33;;;4.30;;
1164;SDS011;571;50.930;6.926;2022-08-23T07:32:11;5.13;;;4.33;;
1164;SDS011;571;50.930;6.926;2022-08-23T07:34:38;5.73;;;3.87;;
1164;SDS011;571;50.930;6.926;2022-08-23T07:37:05;4.70;;;4.07;;
1164;SDS011;571;50.930;6.926;2022-08-23T07:39:33;5.30;;;4.67;;
1164;SDS011;571;50.930;6.926;2022-08-23T07:42:00;8.37;;;4.80;;
1164;SDS011;571;50.930;6.926;2022-08-23T07:44:28;5.40;;;4.07;;
1164;SDS011;571;50.930;6.926;2022-08-23T07:46:55;4.00;;;3.57;;
1164;SDS011;571;50.930;6.926;2022-08-23T07:49:22;9.33;;;4.43;;
1164;SDS011;571;50.930;6.926;2022-08-23T07:51:49;7.47;;;4.90;;
1164;SDS011;571;50.930;6.926;2022-08-23T07:54:17;6.43;;;4.07;;
1164;SDS011;571;50.930;6.926;2022-08-23T07:56:46;8.43;;;4.53;;
1164;SDS011;571;50.930;6.926;2022-08-23T07:59:13;13.07;;;5.37;;
1164;SDS011;571;50.930;6.926;2022-08-23T08:01:40;5.20;;;4.70;;
1164;SDS011;571;50.930;6.926;2022-08-23T08:04:09;5.33;;;4.83;;
1164;SDS011;571;50.930;6.926;2022-08-23T08:06:37;6.33;;;4.13;;
1164;SDS011;571;50.930;6.926;2022-08-23T08:09:06;4.70;;;3.80;;
1164;SDS011;571;50.930;6.926;2022-08-23T08:11:33;7.30;;;4.77;;
1164;SDS011;571;50.930;6.926;2022-08-23T08:14:05;14.07;;;6.23;;
1164;SDS011;571;50.930;6.926;2022-08-23T08:16:33;10.60;;;4.43;;
1164;SDS011;571;50.930;6.926;2022-08-23T08:19:03;8.87;;;5.10;;
1164;SDS011;571;50.930;6.926;2022-08-23T08:21:32;8.37;;;5.17;;
1164;SDS011;571;50.930;6.926;2022-08-23T08:23:59;5.77;;;5.17;;
1164;SDS011;571;50.930;6.926;2022-08-23T08:26:27;6.53;;;5.20;;
1164;SDS011;571;50.930;6.926;2022-08-23T08:28:54;9.40;;;5.57;;
1164;SDS011;571;50.930;6.926;2022-08-23T08:31:22;8.47;;;4.93;;
1164;SDS011;571;50.930;6.926;2022-08-23T08:33:50;5.67;;;4.73;;
1164;SDS011;571;50.930;6.926;2022-08-23T08:36:26;5.07;;;4.00;;
1164;SDS011;571;50.930;6.926;2022-08-23T08:38:55;7.70;;;4.50;;
1164;SDS011;571;50.930;6.926;2022-08-23T08:41:24;11.13;;;6.00;;
1164;SDS011;571;50.930;6.926;2022-08-23T08:44:07;9.23;;;5.30;;
1164;SDS011;571;50.930;6.926;2022-08-23T08:46:43;5.83;;;4.93;;
1164;SDS011;571;50.930;6.926;2022-08-23T08:49:12;8.50;;;5.13;;
1164;SDS011;571;50.930;6.926;2022-08-23T08:51:43;12.00;;;5.33;;
1164;SDS011;571;50.930;6.926;2022-08-23T08:54:16;6.70;;;4.70;;
1164;SDS011;571;50.930;6.926;2022-08-23T08:56:50;6.57;;;4.50;;
1164;SDS011;571;50.930;6.926;2022-08-23T08:59:45;6.00;;;5.00;;
1164;SDS011;571;50.930;6.926;2022-08-23T09:02:19;11.23;;;4.57;;
1164;SDS011;571;50.930;6.926;2022-08-23T09:04:47;5.73;;;4.40;;
1164;SDS011;571;50.930;6.926;2022-08-23T09:07:15;8.73;;;4.10;;
1164;SDS011;571;50.930;6.926;2022-08-23T09:09:52;7.53;;;4.77;;
1164;SDS011;571;50.930;6.926;2022-08-23T09:12:44;6.00;;;4.80;;
1164;SDS011;571;50.930;6.926;2022-08-23T09:15:19;5.20;;;4.43;;
1164;SDS011;571;50.930;6.926;2022-08-23T09:17:54;8.83;;;4.50;;
1164;SDS011;571;50.930;6.926;2022-08-23T09:20:24;5.97;;;5.07;;
1164;SDS011;571;50.930;6.926;2022-08-23T09:22:54;6.20;;;4.17;;
1164;SDS011;571;50.930;6.926;2022-08-23T09:25:29;6.73;;;5.40;;
1164;SDS011;571;50.930;6.926;2022-08-23T09:27:56;8.27;;;5.00;;
1164;SDS011;571;50.930;6.926;2022-08-23T09:30:33;9.30;;;4.60;;
1164;SDS011;571;50.930;6.926;2022-08-23T09:33:17;7.67;;;4.80;;
1164;SDS011;571;50.930;6.926;2022-08-23T09:36:01;5.93;;;4.87;;
1164;SDS011;571;50.930;6.926;2022-08-23T09:38:30;10.27;;;5.17;;
1164;SDS011;571;50.930;6.926;2022-08-23T09:40:58;8.60;;;4.63;;
1164;SDS011;571;50.930;6.926;2022-08-23T09:43:25;7.43;;;4.57;;
1164;SDS011;571;50.930;6.926;2022-08-23T09:45:57;9.30;;;4.90;;
1164;SDS011;571;50.930;6.926;2022-08-23T09:48:34;9.40;;;3.87;;
1164;SDS011;571;50.930;6.926;2022-08-23T09:51:05;7.13;;;4.53;;
1164;SDS011;571;50.930;6.926;2022-08-23T09:53:40;28.77;;;7.67;;
1164;SDS011;571;50.930;6.926;2022-08-23T09:56:14;8.63;;;4.80;;
1164;SDS011;571;50.930;6.926;2022-08-23T09:58:47;9.60;;;4.93;;
1164;SDS011;571;50.930;6.926;2022-08-23T10:01:19;9.83;;;4.00;;
1164;SDS011;571;50.930;6.926;2022-08-23T10:04:04;8.00;;;4.97;;
1164;SDS011;571;50.930;6.926;2022-08-23T10:06:34;7.73;;;3.80;;
1164;SDS011;571;50.930;6.926;2022-08-23T10:09:02;5.70;;;4.43;;
1164;SDS011;571;50.930;6.926;2022-08-23T10:11:31;12.83;;;5.00;;
1164;SDS011;571;50.930;6.926;2022-08-23T10:14:01;7.40;;;4.07;;
1164;SDS011;571;50.930;6.926;2022-08-23T10:16:30;10.40;;;4.37;;
1164;SDS011;571;50.930;6.926;2022-08-23T10:19:09;9.20;;;4.53;;
1164;SDS011;571;50.930;6.926;2022-08-23T10:21:45;7.50;;;3.93;;
1164;SDS011;571;50.930;6.926;2022-08-23T10:24:23;8.40;;;4.13;;
1164;SDS011;571;50.930;6.926;2022-08-23T10:27:06;7.00;;;4.87;;
1164;SDS011;571;50.930;6.926;2022-08-23T10:30:04;10.73;;;3.40;;
1164;SDS011;571;50.930;6.926;2022-08-23T10:32:37;6.50;;;4.17;;
1164;SDS011;571;50.930;6.926;2022-08-23T10:35:20;8.40;;;4.17;;
1164;SDS011;571;50.930;6.926;2022-08-23T10:37:55;5.50;;;4.47;;
1164;SDS011;571;50.930;6.926;2022-08-23T10:40:32;7.57;;;4.30;;
1164;SDS011;571;50.930;6.926;2022-08-23T10:43:07;6.53;;;3.70;;
1164;SDS011;571;50.930;6.926;2022-08-23T10:45:40;11.80;;;4.10;;
1164;SDS011;571;50.930;6.926;2022-08-23T10:48:14;10.00;;;3.90;;
1164;SDS011;571;50.930;6.926;2022-08-23T10:50:48;8.70;;;4.33;;
1164;SDS011;571;50.930;6.926;2022-08-23T10:53:18;6.30;;;3.00;;
1164;SDS011;571;50.930;6.926;2022-08-23T10:55:46;4.50;;;3.40;;
1164;SDS011;571;50.930;6.926;2022-08-23T10:58:29;4.30;;;2.87;;
1164;SDS011;571;50.930;6.926;2022-08-23T11:01:00;9.93;;;4.90;;
1164;SDS011;571;50.930;6.926;2022-08-23T11:03:29;7.53;;;4.23;;
1164;SDS011;571;50.930;6.926;2022-08-23T11:08:58;11.80;;;6.50;;
1164;SDS011;571;50.930;6.926;2022-08-23T11:14:04;5.57;;;3.57;;
1164;SDS011;571;50.930;6.926;2022-08-23T11:16:33;10.70;;;4.57;;
1164;SDS011;571;50.930;6.926;2022-08-23T11:19:00;7.77;;;4.90;;
1164;SDS011;571;50.930;6.926;2022-08-23T11:21:41;12.43;;;4.50;;
1164;SDS011;571;50.930;6.926;2022-08-23T11:24:28;5.00;;;2.93;;
1164;SDS011;571;50.930;6.926;2022-08-23T11:26:59;9.00;;;3.43;;
1164;SDS011;571;50.930;6.926;2022-08-23T11:29:30;7.70;;;2.97;;
1164;SDS011;571;50.930;6.926;2022-08-23T11:32:01;5.97;;;3.37;;
1164;SDS011;571;50.930;6.926;2022-08-23T11:34:39;5.00;;;3.10;;
1164;SDS011;571;50.930;6.926;2022-08-23T11:37:24;8.77;;;4.00;;
1164;SDS011;571;50.930;6.926;2022-08-23T11:40:00;13.07;;;4.57;;
1164;SDS011;571;50.930;6.926;2022-08-23T11:42:43;14.60;;;5.47;;
1164;SDS011;571;50.930;6.926;2022-08-23T11:45:19;14.77;;;5.30;;
1164;SDS011;571;50.930;6.926;2022-08-23T11:47:49;6.97;;;3.57;;
1164;SDS011;571;50.930;6.926;2022-08-23T11:50:30;5.80;;;3.37;;
1164;SDS011;571;50.930;6.926;2022-08-23T11:53:13;9.77;;;2.87;;
1164;SDS011;571;50.930;6.926;2022-08-23T11:55:55;4.53;;;3.40;;
1164;SDS011;571;50.930;6.926;2022-08-23T11:58:33;3.43;;;2.77;;
1164;SDS011;571;50.930;6.926;2022-08-23T12:01:28;8.40;;;3.63;;
1164;SDS011;571;50.930;6.926;2022-08-23T12:03:57;3.57;;;2.83;;
1164;SDS011;571;50.930;6.926;2022-08-23T12:06:37;16.30;;;4.10;;
1164;SDS011;571;50.930;6.926;2022-08-23T12:09:11;6.10;;;3.37;;
1164;SDS011;571;50.930;6.926;2022-08-23T12:12:13;8.93;;;3.57;;
1164;SDS011;571;50.930;6.926;2022-08-23T12:14:52;6.33;;;3.00;;
1164;SDS011;571;50.930;6.926;2022-08-23T12:20:21;6.83;;;3.40;;
1164;SDS011;571;50.930;6.926;2022-08-23T12:22:56;5.10;;;3.00;;
1164;SDS011;571;50.930;6.926;2022-08-23T12:25:29;4.60;;;2.77;;
1164;SDS011;571;50.930;6.926;2022-08-23T12:28:01;8.80;;;4.00;;
1164;SDS011;571;50.930;6.926;2022-08-23T12:30:36;5.60;;;3.10;;
1164;SDS011;571;50.930;6.926;2022-08-23T12:33:14;6.03;;;3.20;;
1164;SDS011;571;50.930;6.926;2022-08-23T12:35:52;10.33;;;4.23;;
1164;SDS011;571;50.930;6.926;2022-08-23T12:38:32;10.10;;;3.83;;
1164;SDS011;571;50.930;6.926;2022-08-23T12:41:10;5.00;;;3.97;;
1164;SDS011;571;50.930;6.926;2022-08-23T12:43:53;8.07;;;4.00;;
1164;SDS011;571;50.930;6.926;2022-08-23T12:46:28;6.53;;;4.00;;
1164;SDS011;571;50.930;6.926;2022-08-23T12:48:58;6.77;;;4.37;;
1164;SDS011;571;50.930;6.926;2022-08-23T12:51:25;4.83;;;3.77;;
1164;SDS011;571;50.930;6.926;2022-08-23T12:53:52;5.60;;;4.07;;
1164;SDS011;571;50.930;6.926;2022-08-23T12:56:20;6.90;;;4.33;;
1164;SDS011;571;50.930;6.926;2022-08-23T12:58:51;5.87;;;3.40;;
1164;SDS011;571;50.930;6.926;2022-08-23T13:01:22;4.23;;;3.70;;
1164;SDS011;571;50.930;6.926;2022-08-23T13:03:52;6.53;;;3.70;;
1164;SDS011;571;50.930;6.926;2022-08-23T13:06:23;5.20;;;3.23;;
1164;SDS011;571;50.930;6.926;2022-08-23T13:08:53;13.43;;;3.63;;
1164;SDS011;571;50.930;6.926;2022-08-23T13:11:24;5.07;;;3.23;;
1164;SDS011;571;50.930;6.926;2022-08-23T13:13:53;7.57;;;3.70;;
1164;SDS011;571;50.930;6.926;2022-08-23T13:16:25;5.53;;;3.27;;
1164;SDS011;571;50.930;6.926;2022-08-23T13:19:13;8.00;;;3.37;;
1164;SDS011;571;50.930;6.926;2022-08-23T13:21:42;3.23;;;2.93;;
1164;SDS011;571;50.930;6.926;2022-08-23T13:24:32;4.53;;;3.63;;
1164;SDS011;571;50.930;6.926;2022-08-23T13:27:15;8.00;;;3.27;;
1164;SDS011;571;50.930;6.926;2022-08-23T13:29:52;5.00;;;3.50;;
1164;SDS011;571;50.930;6.926;2022-08-23T13:32:28;9.30;;;3.10;;
1164;SDS011;571;50.930;6.926;2022-08-23T13:37:57;6.83;;;3.50;;
1164;SDS011;571;50.930;6.926;2022-08-23T13:40:28;8.43;;;3.80;;
1164;SDS011;571;50.930;6.926;2022-08-23T13:42:57;6.63;;;3.30;;
1164;SDS011;571;50.930;6.926;2022-08-23T13:45:28;10.63;;;4.20;;
1164;SDS011;571;50.930;6.926;2022-08-23T13:47:58;12.83;;;3.73;;
1164;SDS011;571;50.930;6.926;2022-08-23T13:50:28;4.23;;;3.20;;
1164;SDS011;571;50.930;6.926;2022-08-23T13:52:56;6.20;;;3.83;;
1164;SDS011;571;50.930;6.926;2022-08-23T13:55:24;6.77;;;3.50;;
1164;SDS011;571;50.930;6.926;2022-08-23T13:57:52;4.93;;;2.80;;
1164;SDS011;571;50.930;6.926;2022-08-23T14:00:20;5.23;;;2.93;;
1164;SDS011;571;50.930;6.926;2022-08-23T14:02:48;3.30;;;3.00;;
1164;SDS011;571;50.930;6.926;2022-08-23T14:05:15;7.53;;;3.43;;
1164;SDS011;571;50.930;6.926;2022-08-23T14:07:45;6.97;;;3.77;;
1164;SDS011;571;50.930;6.926;2022-08-23T14:10:17;5.27;;;2.53;;
1164;SDS011;571;50.930;6.926;2022-08-23T14:12:44;6.70;;;3.17;;
1164;SDS011;571;50.930;6.926;2022-08-23T14:15:12;3.53;;;2.87;;
1164;SDS011;571;50.930;6.926;2022-08-23T14:17:40;9.30;;;2.90;;
1164;SDS011;571;50.930;6.926;2022-08-23T14:20:10;3.17;;;2.70;;
1164;SDS011;571;50.930;6.926;2022-08-23T14:22:37;7.90;;;3.80;;
1164;SDS011;571;50.930;6.926;2022-08-23T14:25:05;3.27;;;2.20;;
1164;SDS011;571;50.930;6.926;2022-08-23T14:27:32;8.00;;;2.53;;
1164;SDS011;571;50.930;6.926;2022-08-23T14:29:59;2.17;;;1.97;;
1164;SDS011;571;50.930;6.926;2022-08-23T14:32:28;8.73;;;3.03;;
1164;SDS011;571;50.930;6.926;2022-08-23T14:34:55;15.10;;;4.40;;
1164;SDS011;571;50.930;6.926;2022-08-23T14:37:23;3.80;;;2.40;;
1164;SDS011;571;50.930;6.926;2022-08-23T14:39:50;16.23;;;4.00;;
1164;SDS011;571;50.930;6.926;2022-08-23T14:42:19;6.00;;;2.17;;
1164;SDS011;571;50.930;6.926;2022-08-23T14:44:47;6.57;;;2.70;;
1164;SDS011;571;50.930;6.926;2022-08-23T14:47:14;5.50;;;2.47;;
1164;SDS011;571;50.930;6.926;2022-08-23T14:49:41;2.27;;;2.07;;
1164;SDS011;571;50.930;6.926;2022-08-23T14:52:07;3.87;;;2.70;;
1164;SDS011;571;50.930;6.926;2022-08-23T14:54:36;3.53;;;2.90;;
1164;SDS011;571;50.930;6.926;2022-08-23T14:57:03;7.30;;;2.70;;
1164;SDS011;571;50.930;6.926;2022-08-23T14:59:30;5.27;;;3.00;;
1164;SDS011;571;50.930;6.926;2022-08-23T15:01:57;4.23;;;2.40;;
1164;SDS011;571;50.930;6.926;2022-08-23T15:04:24;3.93;;;2.03;;
1164;SDS011;571;50.930;6.926;2022-08-23T15:06:52;4.73;;;2.80;;
1164;SDS011;571;50.930;6.926;2022-08-23T15:09:22;3.40;;;1.90;;
1164;SDS011;571;50.930;6.926;2022-08-23T15:11:50;4.33;;;2.50;;
1164;SDS011;571;50.930;6.926;2022-08-23T15:14:18;3.40;;;2.20;;
1164;SDS011;571;50.930;6.926;2022-08-23T15:16:45;4.10;;;2.70;;
1164;SDS011;571;50.930;6.926;2022-08-23T15:19:12;4.57;;;2.73;;
1164;SDS011;571;50.930;6.926;2022-08-23T15:21:39;12.10;;;2.80;;
1164;SDS011;571;50.930;6.926;2022-08-23T15:24:05;5.07;;;2.87;;
1164;SDS011;571;50.930;6.926;2022-08-23T15:26:32;5.67;;;2.33;;
1164;SDS011;571;50.930;6.926;2022-08-23T15:29:01;5.67;;;2.77;;
1164;SDS011;571;50.930;6.926;2022-08-23T15:31:28;7.57;;;2.43;;
1164;SDS011;571;50.930;6.926;2022-08-23T15:33:55;9.30;;;2.47;;
1164;SDS011;571;50.930;6.926;2022-08-23T15:36:22;7.70;;;2.33;;
1164;SDS011;571;50.930;6.926;2022-08-23T15:38:49;3.73;;;2.20;;
1164;SDS011;571;50.930;6.926;2022-08-23T15:41:17;4.27;;;2.37;;
1164;SDS011;571;50.930;6.926;2022-08-23T15:43:44;5.50;;;2.50;;
1164;SDS011;571;50.930;6.926;2022-08-23T15:46:15;6.60;;;2.33;;
1164;SDS011;571;50.930;6.926;2022-08-23T15:48:45;3.97;;;2.30;;
1164;SDS011;571;50.930;6.926;2022-08-23T15:51:16;5.50;;;2.33;;
1164;SDS011;571;50.930;6.926;2022-08-23T15:53:43;4.97;;;2.00;;
1164;SDS011;571;50.930;6.926;2022-08-23T15:56:12;5.43;;;2.40;;
1164;SDS011;571;50.930;6.926;2022-08-23T15:58:42;5.60;;;2.37;;
1164;SDS011;571;50.930;6.926;2022-08-23T16:01:09;4.57;;;2.63;;
1164;SDS011;571;50.930;6.926;2022-08-23T16:03:38;5.63;;;2.27;;
1164;SDS011;571;50.930;6.926;2022-08-23T16:06:07;8.13;;;2.93;;
1164;SDS011;571;50.930;6.926;2022-08-23T16:08:36;5.03;;;1.93;;
1164;SDS011;571;50.930;6.926;2022-08-23T16:11:04;4.53;;;2.60;;
1164;SDS011;571;50.930;6.926;2022-08-23T16:13:36;4.80;;;2.30;;
1164;SDS011;571;50.930;6.926;2022-08-23T16:16:06;4.13;;;2.47;;
1164;SDS011;571;50.930;6.926;2022-08-23T16:18:39;6.67;;;2.37;;
1164;SDS011;571;50.930;6.926;2022-08-23T16:21:06;6.07;;;2.90;;
1164;SDS011;571;50.930;6.926;2022-08-23T16:23:33;5.83;;;2.30;;
1164;SDS011;571;50.930;6.926;2022-08-23T16:26:00;6.67;;;2.73;;
1164;SDS011;571;50.930;6.926;2022-08-23T16:28:26;4.30;;;3.00;;
1164;SDS011;571;50.930;6.926;2022-08-23T16:30:53;5.43;;;2.30;;
1164;SDS011;571;50.930;6.926;2022-08-23T16:33:20;2.90;;;2.30;;
1164;SDS011;571;50.930;6.926;2022-08-23T16:35:48;3.50;;;2.60;;
1164;SDS011;571;50.930;6.926;2022-08-23T16:38:14;2.80;;;2.00;;
1164;SDS011;571;50.930;6.926;2022-08-23T16:40:41;9.13;;;2.37;;
1164;SDS011;571;50.930;6.926;2022-08-23T16:43:08;4.57;;;2.20;;
1164;SDS011;571;50.930;6.926;2022-08-23T16:45:35;3.93;;;2.07;;
1164;SDS011;571;50.930;6.926;2022-08-23T16:48:01;6.57;;;2.70;;
1164;SDS011;571;50.930;6.926;2022-08-23T16:50:29;5.57;;;2.40;;
1164;SDS011;571;50.930;6.926;2022-08-23T16:52:58;3.07;;;2.77;;
1164;SDS011;571;50.930;6.926;2022-08-23T16:55:25;4.80;;;2.10;;
1164;SDS011;571;50.930;6.926;2022-08-23T16:57:52;9.37;;;3.70;;
1164;SDS011;571;50.930;6.926;2022-08-23T17:00:19;17.00;;;5.87;;
1164;SDS011;571;50.930;6.926;2022-08-23T17:02:45;11.40;;;4.93;;
1164;SDS011;571;50.930;6.926;2022-08-23T17:05:14;14.27;;;4.47;;
1164;SDS011;571;50.930;6.926;2022-08-23T17:07:42;10.17;;;3.77;;
1164;SDS011;571;50.930;6.926;2022-08-23T17:10:11;7.17;;;3.33;;
1164;SDS011;571;50.930;6.926;2022-08-23T17:12:40;3.43;;;1.67;;
1164;SDS011;571;50.930;6.926;2022-08-23T17:15:09;2.50;;;2.10;;
1164;SDS011;571;50.930;6.926;2022-08-23T17:17:39;5.20;;;2.70;;
1164;SDS011;571;50.930;6.926;2022-08-23T17:20:08;7.00;;;2.50;;
1164;SDS011;571;50.930;6.926;2022-08-23T17:22:35;4.43;;;2.00;;
1164;SDS011;571;50.930;6.926;2022-08-23T17:25:02;5.30;;;2.30;;
1164;SDS011;571;50.930;6.926;2022-08-23T17:27:31;4.37;;;2.30;;
1164;SDS011;571;50.930;6.926;2022-08-23T17:29:58;3.87;;;1.70;;
1164;SDS011;571;50.930;6.926;2022-08-23T17:32:24;8.93;;;3.10;;
1164;SDS011;571;50.930;6.926;2022-08-23T17:34:52;6.40;;;2.10;;
1164;SDS011;571;50.930;6.926;2022-08-23T17:37:20;5.30;;;2.10;;
1164;SDS011;571;50.930;6.926;2022-08-23T17:39:47;2.90;;;1.70;;
1164;SDS011;571;50.930;6.926;2022-08-23T17:42:15;5.10;;;2.77;;
1164;SDS011;571;50.930;6.926;2022-08-23T17:44:46;8.30;;;2.10;;
1164;SDS011;571;50.930;6.926;2022-08-23T17:47:15;2.20;;;1.80;;
1164;SDS011;571;50.930;6.926;2022-08-23T17:49:43;5.00;;;2.33;;
1164;SDS011;571;50.930;6.926;2022-08-23T17:52:13;3.53;;;2.00;;
1164;SDS011;571;50.930;6.926;2022-08-23T17:54:40;6.10;;;2.10;;
1164;SDS011;571;50.930;6.926;2022-08-23T17:57:07;4.83;;;1.83;;
1164;SDS011;571;50.930;6.926;2022-08-23T17:59:35;6.50;;;2.50;;
1164;SDS011;571;50.930;6.926;2022-08-23T18:02:04;6.40;;;2.70;;
1164;SDS011;571;50.930;6.926;2022-08-23T18:04:31;8.17;;;2.70;;
1164;SDS011;571;50.930;6.926;2022-08-23T18:06:58;5.30;;;2.30;;
1164;SDS011;571;50.930;6.926;2022-08-23T18:09:26;5.87;;;2.47;;
1164;SDS011;571;50.930;6.926;2022-08-23T18:11:52;8.67;;;2.70;;
1164;SDS011;571;50.930;6.926;2022-08-23T18:14:19;9.37;;;2.10;;
1164;SDS011;571;50.930;6.926;2022-08-23T18:16:47;5.13;;;2.83;;
1164;SDS011;571;50.930;6.926;2022-08-23T18:19:15;6.43;;;2.53;;
1164;SDS011;571;50.930;6.926;2022-08-23T18:21:42;4.63;;;2.57;;
1164;SDS011;571;50.930;6.926;2022-08-23T18:24:10;5.53;;;2.60;;
1164;SDS011;571;50.930;6.926;2022-08-23T18:26:37;3.43;;;2.20;;
1164;SDS011;571;50.930;6.926;2022-08-23T18:29:21;7.80;;;2.83;;
1164;SDS011;571;50.930;6.926;2022-08-23T18:31:49;3.30;;;2.53;;
1164;SDS011;571;50.930;6.926;2022-08-23T18:34:17;4.30;;;2.40;;
1164;SDS011;571;50.930;6.926;2022-08-23T18:36:44;3.90;;;2.90;;
1164;SDS011;571;50.930;6.926;2022-08-23T18:39:12;5.80;;;2.87;;
1164;SDS011;571;50.930;6.926;2022-08-23T18:41:40;4.07;;;2.30;;
1164;SDS011;571;50.930;6.926;2022-08-23T18:44:08;5.00;;;2.60;;
1164;SDS011;571;50.930;6.926;2022-08-23T18:46:38;8.70;;;3.00;;
1164;SDS011;571;50.930;6.926;2022-08-23T18:49:06;5.43;;;2.73;;
1164;SDS011;571;50.930;6.926;2022-08-23T18:51:35;8.10;;;2.40;;
1164;SDS011;571;50.930;6.926;2022-08-23T18:54:02;5.20;;;3.63;;
1164;SDS011;571;50.930;6.926;2022-08-23T18:56:30;9.17;;;2.90;;
1164;SDS011;571;50.930;6.926;2022-08-23T18:58:57;5.87;;;2.90;;
1164;SDS011;571;50.930;6.926;2022-08-23T19:01:25;20.57;;;3.13;;
1164;SDS011;571;50.930;6.926;2022-08-23T19:03:54;4.70;;;2.70;;
1164;SDS011;571;50.930;6.926;2022-08-23T19:06:22;6.20;;;2.77;;
1164;SDS011;571;50.930;6.926;2022-08-23T19:08:50;5.77;;;3.17;;
1164;SDS011;571;50.930;6.926;2022-08-23T19:11:17;7.10;;;2.50;;
1164;SDS011;571;50.930;6.926;2022-08-23T19:13:45;4.63;;;2.83;;
1164;SDS011;571;50.930;6.926;2022-08-23T19:16:14;5.83;;;3.60;;
1164;SDS011;571;50.930;6.926;2022-08-23T19:18:41;5.97;;;4.00;;
1164;SDS011;571;50.930;6.926;2022-08-23T19:21:10;4.30;;;2.80;;
1164;SDS011;571;50.930;6.926;2022-08-23T19:23:38;4.73;;;2.90;;
1164;SDS011;571;50.930;6.926;2022-08-23T19:26:08;7.43;;;3.20;;
1164;SDS011;571;50.930;6.926;2022-08-23T19:28:36;5.70;;;2.87;;
1164;SDS011;571;50.930;6.926;2022-08-23T19:31:03;5.60;;;2.90;;
1164;SDS011;571;50.930;6.926;2022-08-23T19:33:30;8.43;;;3.53;;
1164;SDS011;571;50.930;6.926;2022-08-23T19:35:57;4.63;;;2.97;;
1164;SDS011;571;50.930;6.926;2022-08-23T19:38:24;3.50;;;2.87;;
1164;SDS011;571;50.930;6.926;2022-08-23T19:40:51;9.93;;;3.97;;
1164;SDS011;571;50.930;6.926;2022-08-23T19:43:20;6.80;;;3.60;;
1164;SDS011;571;50.930;6.926;2022-08-23T19:45:48;9.37;;;3.57;;
1164;SDS011;571;50.930;6.926;2022-08-23T19:48:15;5.80;;;3.20;;
1164;SDS011;571;50.930;6.926;2022-08-23T19:50:43;10.03;;;3.73;;
1164;SDS011;571;50.930;6.926;2022-08-23T19:53:11;9.27;;;3.13;;
1164;SDS011;571;50.930;6.926;2022-08-23T19:55:38;7.67;;;3.33;;
1164;SDS011;571;50.930;6.926;2022-08-23T19:58:05;4.80;;;2.67;;
1164;SDS011;571;50.930;6.926;2022-08-23T20:00:34;6.63;;;3.10;;